DK-0003 weather

Tølløse Flyveklub
Tølløse, Zealand, Denmark

Public forecast

Using degrees Celsius for public forecast. Weather courtesy of forecast.io.

METAR (pilot weather report)

Closest report is Copenhagen Roskilde Airport, 12.8 nm (23.6 km) E. Retrieved 2019/09/23 05:20 UTC (32 minutes ago):

EKRK 230520Z AUTO 11014KT 9999 OVC014/// 13/10 Q1016

TAF (pilot weather forecast)

Forecast is more than 12 hours old.

Closest forecast is Copenhagen Kastrup Airport, 30.6 nm (56.7 km) E. Retrieved 2019/09/22 00:30 UTC (1 day ago):

TAF EKCH 222303Z 2300/2324 10016KT 9999 BKN018 TEMPO 2300/2308 10016G28KT BKN012